CheckWX is a tool to help pilots better visualize weather data.  It is not intended as a substitute for an official pre-flight weather briefing.

02:57:29 UTC

KTTN METAR
Trenton Mercer Airport
Trenton, New Jersey, USA
Current

1 hour ago

KTTN 060153Z 29011G20KT 10SM BKN055 04/M05 A3006 RMK AO2 SLP174 T00391050
Observed
Dec-6 @ 01:53 UTC
Wind
  • 290° at 11 KTS
  • Gusting to 20 KTS
Visibility
10 SM
Flight Rules
VFR
Cloud Levels
  • Broken at 5,500' AGL
Temperature
C / 39°F
Dewpoint
-5°C / 23°F
Humidity
52%
Altimeter
30.06" Hg
Pressure
1017.92 hPa
Previous

2 hours ago

KTTN 060053Z 30009G16KT 10SM OVC060 04/M04 A3003 RMK AO2 SLP165 T00441044
Observed
Dec-6 @ 00:53 UTC
Wind
  • 300° at 9 KTS
  • Gusting to 16 KTS
Visibility
10 SM
Flight Rules
VFR
Cloud Levels
  • Overcast at 6,000' AGL
Temperature
C / 39°F
Dewpoint
-4°C / 25°F
Humidity
56%
Altimeter
30.03" Hg
Pressure
1016.92 hPa
Previous

3 hours ago

KTTN 052353Z 30011KT 10SM OVC060 04/M04 A3001 RMK AO2 SLP157 T00441044 10061 20044 51034
Observed
Dec-5 @ 23:53 UTC
Wind
  • 300° at 11 KTS
Visibility
10 SM
Flight Rules
VFR
Cloud Levels
  • Overcast at 6,000' AGL
Temperature
C / 39°F
Dewpoint
-4°C / 25°F
Humidity
56%
Altimeter
30.01" Hg
Pressure
1016.22 hPa